createdAt,value
2022-11-13T00:00:21.129Z,96564
2022-11-13T00:01:28.787Z,96568
2022-11-13T00:02:38.506Z,96566
2022-11-13T00:03:46.181Z,96567
2022-11-13T00:04:55.857Z,96563
2022-11-13T00:06:04.598Z,96559
2022-11-13T00:07:13.466Z,96555
2022-11-13T00:08:22.960Z,96558
2022-11-13T00:09:31.658Z,96557
2022-11-13T00:10:40.322Z,96556
2022-11-13T00:11:50.025Z,96555
2022-11-13T00:12:57.706Z,96553
2022-11-13T00:14:06.370Z,96554
2022-11-13T00:15:16.046Z,96552
2022-11-13T00:16:25.770Z,96552
2022-11-13T00:17:35.457Z,96551
2022-11-13T00:18:42.124Z,96545
2022-11-13T00:19:49.774Z,96542
2022-11-13T00:20:59.468Z,96546
2022-11-13T00:22:07.121Z,96544
2022-11-13T00:23:15.925Z,96534
2022-11-13T00:24:25.503Z,96537
2022-11-13T00:25:35.173Z,96534
2022-11-13T00:26:44.857Z,96532
2022-11-13T00:27:54.592Z,96531
2022-11-13T00:29:03.264Z,96534
2022-11-13T00:30:17.974Z,96533
2022-11-13T00:31:22.591Z,96533
2022-11-13T00:32:31.261Z,96534
2022-11-13T00:34:09.514Z,96533
2022-11-13T00:34:50.608Z,96535
2022-11-13T00:36:00.278Z,96528
2022-11-13T00:37:07.962Z,96532
2022-11-13T00:38:16.692Z,96526
2022-11-13T00:39:26.521Z,96526
2022-11-13T00:40:34.081Z,96518
2022-11-13T00:41:42.746Z,96526
2022-11-13T00:42:52.426Z,96528
2022-11-13T00:44:01.086Z,96525
2022-11-13T00:45:10.762Z,96524
2022-11-13T00:46:19.483Z,96526
2022-11-13T00:47:28.143Z,96531
2022-11-13T00:48:37.823Z,96520
2022-11-13T00:49:45.539Z,96516
2022-11-13T00:50:54.185Z,96518
2022-11-13T00:52:02.895Z,96514
2022-11-13T00:53:15.341Z,96510
2022-11-13T00:54:21.202Z,96512
2022-11-13T00:55:29.998Z,96509
2022-11-13T00:56:39.579Z,96508
2022-11-13T00:57:49.279Z,96507
2022-11-13T00:58:56.925Z,96508
2022-11-13T01:00:05.614Z,96507
2022-11-13T01:01:14.364Z,96506
2022-11-13T01:02:22.935Z,96501
2022-11-13T01:03:32.747Z,96503
2022-11-13T01:04:39.406Z,96500
2022-11-13T01:05:48.063Z,96497
2022-11-13T01:06:57.811Z,96497
2022-11-13T01:08:05.403Z,96498
2022-11-13T01:09:14.131Z,96495
2022-11-13T01:10:23.807Z,96490
2022-11-13T01:11:33.577Z,96488
2022-11-13T01:12:43.134Z,96485
2022-11-13T01:13:50.792Z,96482
2022-11-13T01:15:00.476Z,96486
2022-11-13T01:16:10.150Z,96483
2022-11-13T01:17:17.806Z,96485
2022-11-13T01:18:26.730Z,96480
2022-11-13T01:19:35.138Z,96480
2022-11-13T01:20:44.830Z,96480
2022-11-13T01:21:54.507Z,96479
2022-11-13T01:23:04.166Z,96475
2022-11-13T01:24:13.836Z,96479
2022-11-13T01:25:23.510Z,96479
2022-11-13T01:26:32.253Z,96474
2022-11-13T01:27:40.959Z,96468
2022-11-13T01:28:50.621Z,96469
2022-11-13T01:30:00.306Z,96467
2022-11-13T01:31:10.012Z,96466
2022-11-13T01:32:18.701Z,96465
2022-11-13T01:33:27.360Z,96461
2022-11-13T01:34:37.030Z,96456
2022-11-13T01:35:44.697Z,96454
2022-11-13T01:36:54.388Z,96453
2022-11-13T01:38:03.117Z,96459
2022-11-13T01:39:11.786Z,96451
2022-11-13T01:40:21.469Z,96454
2022-11-13T01:41:29.142Z,96453
2022-11-13T01:42:37.787Z,96452
2022-11-13T01:43:47.584Z,96449
2022-11-13T01:44:56.173Z,96449
2022-11-13T01:46:05.846Z,96449
2022-11-13T01:47:14.542Z,96449
2022-11-13T01:48:23.224Z,96447
2022-11-13T01:49:31.916Z,96447
2022-11-13T01:50:39.616Z,96445
2022-11-13T01:51:48.277Z,96447
2022-11-13T01:52:57.958Z,96444
2022-11-13T01:54:05.621Z,96437
2022-11-13T01:55:14.316Z,96437
2022-11-13T01:56:23.036Z,96429
2022-11-13T01:57:31.700Z,96432
2022-11-13T01:58:41.377Z,96435
2022-11-13T01:59:51.147Z,96434
2022-11-13T02:01:00.709Z,96434
2022-11-13T02:02:08.459Z,96438
2022-11-13T02:03:18.061Z,96437
2022-11-13T02:04:26.766Z,96437
2022-11-13T02:05:34.416Z,96433
2022-11-13T02:06:44.327Z,96432
2022-11-13T02:07:52.904Z,96436
2022-11-13T02:09:01.569Z,96436
2022-11-13T02:10:11.255Z,96438
2022-11-13T02:11:19.938Z,96431
2022-11-13T02:12:28.625Z,96431
2022-11-13T02:13:38.319Z,96427
2022-11-13T02:14:47.004Z,96421
2022-11-13T02:15:55.936Z,96417
2022-11-13T02:17:05.504Z,96422
2022-11-13T02:18:15.209Z,96424
2022-11-13T02:19:24.873Z,96417
2022-11-13T02:20:34.573Z,96417
2022-11-13T02:21:43.229Z,96416
2022-11-13T02:22:52.908Z,96414
2022-11-13T02:24:00.605Z,96410
2022-11-13T02:25:09.285Z,96410
2022-11-13T02:26:17.959Z,96411
2022-11-13T02:27:26.661Z,96414
2022-11-13T02:28:36.336Z,96404
2022-11-13T02:29:44.053Z,96405
2022-11-13T02:30:52.693Z,96405
2022-11-13T02:32:02.526Z,96403
2022-11-13T02:33:11.068Z,96404
2022-11-13T02:34:18.746Z,96401
2022-11-13T02:35:27.459Z,96402
2022-11-13T02:36:36.127Z,96399
2022-11-13T02:37:45.800Z,96399
2022-11-13T02:38:53.460Z,96398
2022-11-13T02:40:03.144Z,96394
2022-11-13T02:41:12.854Z,96394
2022-11-13T02:42:21.528Z,96388
2022-11-13T02:43:30.205Z,96384
2022-11-13T02:44:38.887Z,96387
2022-11-13T02:45:47.546Z,96385
2022-11-13T02:46:57.269Z,96385
2022-11-13T02:48:07.072Z,96386
2022-11-13T02:49:16.625Z,96386
2022-11-13T02:50:26.319Z,96390
2022-11-13T02:51:33.977Z,96383
2022-11-13T02:52:43.730Z,96383
2022-11-13T02:53:52.358Z,96379
2022-11-13T02:55:01.020Z,96379
2022-11-13T02:56:10.701Z,96374
2022-11-13T02:57:18.367Z,96374
2022-11-13T02:58:27.425Z,96372
2022-11-13T02:59:36.893Z,96368
2022-11-13T03:00:44.542Z,96365
2022-11-13T03:01:53.338Z,96358
2022-11-13T03:03:03.022Z,96353
2022-11-13T03:04:11.816Z,96354
2022-11-13T03:05:21.414Z,96349
2022-11-13T03:06:29.103Z,96346
2022-11-13T03:07:37.763Z,96344
2022-11-13T03:08:47.500Z,96344
2022-11-13T03:09:55.200Z,96341
2022-11-13T03:11:03.897Z,96345
2022-11-13T03:12:11.563Z,96343
2022-11-13T03:13:21.232Z,96349
2022-11-13T03:14:30.924Z,96345
2022-11-13T03:15:38.632Z,96349
2022-11-13T03:16:48.327Z,96352
2022-11-13T03:17:58.024Z,96355
2022-11-13T03:19:07.726Z,96355
2022-11-13T03:20:16.550Z,96355
2022-11-13T03:21:26.107Z,96350
2022-11-13T03:22:35.809Z,96353
2022-11-13T03:23:45.547Z,96350
2022-11-13T03:24:54.185Z,96348
2022-11-13T03:26:02.881Z,96346
2022-11-13T03:27:12.625Z,96350
2022-11-13T03:28:21.302Z,96350
2022-11-13T03:29:31.011Z,96350
2022-11-13T03:30:40.698Z,96349
2022-11-13T03:31:49.362Z,96345
2022-11-13T03:32:59.054Z,96339
2022-11-13T03:34:07.732Z,96340
2022-11-13T03:35:17.435Z,96336
2022-11-13T03:36:27.243Z,96337
2022-11-13T03:37:34.805Z,96327
2022-11-13T03:38:43.607Z,96323
2022-11-13T03:39:53.286Z,96319
2022-11-13T03:41:01.947Z,96321
2022-11-13T03:42:11.617Z,96314
2022-11-13T03:43:20.281Z,96314
2022-11-13T03:44:29.973Z,96314
2022-11-13T03:45:39.653Z,96310
2022-11-13T03:46:48.350Z,96310
2022-11-13T03:47:57.048Z,96307
2022-11-13T03:49:05.742Z,96306
2022-11-13T03:50:14.473Z,96300
2022-11-13T03:51:24.153Z,96297
2022-11-13T03:52:31.939Z,96301
2022-11-13T03:53:41.515Z,96300
2022-11-13T03:54:51.213Z,96296
2022-11-13T03:55:58.877Z,96294
2022-11-13T03:57:08.552Z,96291
2022-11-13T03:58:17.241Z,96300
2022-11-13T03:59:25.930Z,96298
2022-11-13T04:00:35.636Z,96297
2022-11-13T04:01:44.367Z,96296
2022-11-13T04:02:54.008Z,96294
2022-11-13T04:04:01.724Z,96300
2022-11-13T04:05:10.366Z,96295
2022-11-13T04:06:21.031Z,96297
2022-11-13T04:07:30.723Z,96300
2022-11-13T04:08:39.530Z,96294
2022-11-13T04:09:49.095Z,96291
2022-11-13T04:10:57.765Z,96291
2022-11-13T04:12:07.443Z,96292
2022-11-13T04:13:16.242Z,96295
2022-11-13T04:14:25.910Z,96295
2022-11-13T04:15:35.634Z,96294
2022-11-13T04:16:44.301Z,96298
2022-11-13T04:17:52.969Z,96299
2022-11-13T04:19:01.681Z,96298
2022-11-13T04:20:11.357Z,96298
2022-11-13T04:21:21.041Z,96300
2022-11-13T04:22:30.720Z,96297
2022-11-13T04:23:39.367Z,96300
2022-11-13T04:24:49.184Z,96298
2022-11-13T04:25:56.733Z,96295
2022-11-13T04:27:06.405Z,96295
2022-11-13T04:28:15.092Z,96291
2022-11-13T04:29:23.772Z,96289
2022-11-13T04:30:33.469Z,96290
2022-11-13T04:31:41.129Z,96291
2022-11-13T04:32:49.798Z,96283
2022-11-13T04:33:59.476Z,96283
2022-11-13T04:35:07.165Z,96284
2022-11-13T04:36:15.895Z,96287
2022-11-13T04:37:24.564Z,96282
2022-11-13T04:38:33.244Z,96282
2022-11-13T04:39:42.912Z,96281
2022-11-13T04:40:52.722Z,96280
2022-11-13T04:42:02.295Z,96276
2022-11-13T04:43:11.978Z,96273
2022-11-13T04:44:19.663Z,96273
2022-11-13T04:45:28.323Z,96274
2022-11-13T04:46:36.993Z,96273
2022-11-13T04:47:46.686Z,96271
2022-11-13T04:48:56.357Z,96266
2022-11-13T04:50:05.069Z,96261
2022-11-13T04:51:14.728Z,96262
2022-11-13T04:52:24.409Z,96260
2022-11-13T04:53:33.192Z,96259
2022-11-13T04:54:41.857Z,96260
2022-11-13T04:55:51.595Z,96267
2022-11-13T04:57:00.374Z,96266
2022-11-13T04:58:09.945Z,96260
2022-11-13T04:59:18.648Z,96254
2022-11-13T05:00:28.308Z,96261
2022-11-13T05:01:38.036Z,96262
2022-11-13T05:02:45.649Z,96260
2022-11-13T05:03:53.313Z,96260
2022-11-13T05:05:05.100Z,96259
2022-11-13T05:06:10.632Z,96260
2022-11-13T05:07:20.424Z,96258
2022-11-13T05:08:28.333Z,96264
2022-11-13T05:09:36.701Z,96260
2022-11-13T05:10:46.426Z,96259
2022-11-13T05:11:54.084Z,96253
2022-11-13T05:13:02.885Z,96257
2022-11-13T05:14:12.443Z,96255
2022-11-13T05:15:22.132Z,96254
2022-11-13T05:16:31.963Z,96253
2022-11-13T05:17:40.651Z,96248
2022-11-13T05:18:49.312Z,96249
2022-11-13T05:19:59.027Z,96252
2022-11-13T05:21:07.705Z,96242
2022-11-13T05:22:16.451Z,96237
2022-11-13T05:23:26.113Z,96233
2022-11-13T05:24:34.784Z,96234
2022-11-13T05:25:44.528Z,96236
2022-11-13T05:26:52.188Z,96241
2022-11-13T05:28:00.883Z,96232
2022-11-13T05:29:10.776Z,96230
2022-11-13T05:30:18.329Z,96229
2022-11-13T05:31:26.989Z,96226
2022-11-13T05:32:35.667Z,96231
2022-11-13T05:33:45.465Z,96229
2022-11-13T05:34:54.164Z,96227
2022-11-13T05:36:01.866Z,96226
2022-11-13T05:37:10.588Z,96225
2022-11-13T05:38:20.259Z,96232
2022-11-13T05:39:28.962Z,96229
2022-11-13T05:40:37.615Z,96225
2022-11-13T05:41:46.290Z,96221
2022-11-13T05:42:54.960Z,96224
2022-11-13T05:44:04.645Z,96218
2022-11-13T05:45:13.471Z,96217
2022-11-13T05:46:23.024Z,96218
2022-11-13T05:47:32.684Z,96215
2022-11-13T05:48:40.442Z,96223
2022-11-13T05:49:50.135Z,96220
2022-11-13T05:50:58.833Z,96213
2022-11-13T05:52:07.500Z,96212
2022-11-13T05:53:17.246Z,96220
2022-11-13T05:54:25.198Z,96215
2022-11-13T05:55:35.104Z,96214
2022-11-13T05:56:42.802Z,96206
2022-11-13T05:57:52.486Z,96203
2022-11-13T05:59:02.172Z,96191
2022-11-13T06:00:09.854Z,96188
2022-11-13T06:01:19.648Z,96189
2022-11-13T06:02:29.236Z,96192
2022-11-13T06:03:38.931Z,96195
2022-11-13T06:04:50.556Z,96195
2022-11-13T06:05:59.309Z,96196
2022-11-13T06:07:08.038Z,96185
2022-11-13T06:08:17.705Z,96191
2022-11-13T06:09:26.395Z,96182
2022-11-13T06:10:36.114Z,96190
2022-11-13T06:11:44.875Z,96191
2022-11-13T06:12:53.553Z,96193
2022-11-13T06:14:03.244Z,96196
2022-11-13T06:15:11.921Z,96196
2022-11-13T06:16:21.572Z,96194
2022-11-13T06:17:31.379Z,96185
2022-11-13T06:18:40.921Z,96178
2022-11-13T06:19:49.752Z,96175
2022-11-13T06:20:58.433Z,96171
2022-11-13T06:22:07.112Z,96171
2022-11-13T06:23:16.791Z,96177
2022-11-13T06:24:25.485Z,96173
2022-11-13T06:25:34.168Z,96173
2022-11-13T06:26:43.872Z,96175
2022-11-13T06:27:51.529Z,96171
2022-11-13T06:29:00.194Z,96181
2022-11-13T06:30:08.851Z,96173
2022-11-13T06:31:17.571Z,96170
2022-11-13T06:32:25.237Z,96169
2022-11-13T06:33:34.027Z,96167
2022-11-13T06:34:42.557Z,96162
2022-11-13T06:35:52.229Z,96160
2022-11-13T06:37:01.725Z,96161
2022-11-13T06:38:08.702Z,96159
2022-11-13T06:39:17.462Z,96163
2022-11-13T06:40:26.080Z,96160
2022-11-13T06:41:35.757Z,96158
2022-11-13T06:42:44.469Z,96158
2022-11-13T06:43:56.512Z,96161
2022-11-13T06:45:04.875Z,96157
2022-11-13T06:46:13.473Z,96152
2022-11-13T06:47:22.150Z,96156
2022-11-13T06:48:31.934Z,96157
2022-11-13T06:49:40.657Z,96147
2022-11-13T06:50:50.231Z,96151
2022-11-13T06:51:58.893Z,96142
2022-11-13T06:53:07.554Z,96146
2022-11-13T06:54:17.259Z,96138
2022-11-13T06:55:25.930Z,96123
2022-11-13T06:56:34.590Z,96112
2022-11-13T06:57:43.267Z,96110
2022-11-13T06:58:51.983Z,96109
2022-11-13T07:00:01.695Z,96111
2022-11-13T07:01:09.460Z,96111
2022-11-13T07:02:17.059Z,96117
2022-11-13T07:03:26.772Z,96114
2022-11-13T07:04:35.453Z,96119
2022-11-13T07:05:45.384Z,96114
2022-11-13T07:06:54.914Z,96131
2022-11-13T07:08:03.554Z,96127
2022-11-13T07:09:13.272Z,96118
2022-11-13T07:10:22.024Z,96111
2022-11-13T07:11:30.716Z,96102
2022-11-13T07:12:41.403Z,96099
2022-11-13T07:13:51.099Z,96098
2022-11-13T07:14:59.746Z,96110
2022-11-13T07:16:16.155Z,96111
2022-11-13T07:17:20.100Z,96114
2022-11-13T07:18:28.892Z,96113
2022-11-13T07:19:36.462Z,96111
2022-11-13T07:20:46.121Z,96104
2022-11-13T07:21:55.935Z,96096
2022-11-13T07:23:04.630Z,96088
2022-11-13T07:24:17.017Z,96086
2022-11-13T07:25:24.007Z,96091
2022-11-13T07:26:33.671Z,96097
2022-11-13T07:27:43.342Z,96096
2022-11-13T07:28:51.046Z,96100
2022-11-13T07:30:03.490Z,96099
2022-11-13T07:31:10.341Z,96096
2022-11-13T07:32:19.015Z,96102
2022-11-13T07:33:27.685Z,96109
2022-11-13T07:34:36.431Z,96107
2022-11-13T07:35:45.123Z,96109
2022-11-13T07:36:54.799Z,96113
2022-11-13T07:38:03.591Z,96117
2022-11-13T07:39:13.139Z,96121
2022-11-13T07:40:22.924Z,96125
2022-11-13T07:41:32.588Z,96129
2022-11-13T07:42:41.261Z,96130
2022-11-13T07:43:49.932Z,96140
2022-11-13T07:44:58.588Z,96158
2022-11-13T07:46:08.275Z,96153
2022-11-13T07:47:16.936Z,96141
2022-11-13T07:48:25.677Z,96145
2022-11-13T07:49:35.255Z,96153
2022-11-13T07:50:43.917Z,96150
2022-11-13T07:51:53.620Z,96152
2022-11-13T07:53:03.292Z,96150
2022-11-13T07:54:13.152Z,96149
2022-11-13T07:55:22.735Z,96149
2022-11-13T07:56:31.395Z,96148
2022-11-13T07:57:40.189Z,96150
2022-11-13T07:58:47.861Z,96158
2022-11-13T07:59:57.528Z,96162
2022-11-13T08:01:07.311Z,96158
2022-11-13T08:02:14.852Z,96157
2022-11-13T08:03:24.523Z,96152
2022-11-13T08:04:33.188Z,96155
2022-11-13T08:05:41.837Z,96150
2022-11-13T08:06:51.545Z,96143
2022-11-13T08:07:59.162Z,96137
2022-11-13T08:09:07.848Z,96133
2022-11-13T08:10:17.634Z,96126
2022-11-13T08:11:26.174Z,96123
2022-11-13T08:12:34.837Z,96121
2022-11-13T08:13:43.510Z,96122
2022-11-13T08:14:53.202Z,96122
2022-11-13T08:16:02.866Z,96119
2022-11-13T08:17:11.557Z,96115
2022-11-13T08:18:21.233Z,96115
2022-11-13T08:19:30.912Z,96112
2022-11-13T08:20:38.596Z,96109
2022-11-13T08:21:47.284Z,96114
2022-11-13T08:22:56.965Z,96111
2022-11-13T08:24:06.648Z,96104
2022-11-13T08:25:16.367Z,96099
2022-11-13T08:26:25.273Z,96103
2022-11-13T08:27:33.839Z,96107
2022-11-13T08:28:43.510Z,96113
2022-11-13T08:29:52.184Z,96118
2022-11-13T08:31:00.846Z,96118
2022-11-13T08:32:11.522Z,96117
2022-11-13T08:33:20.179Z,96119
2022-11-13T08:34:29.847Z,96114
2022-11-13T08:35:37.583Z,96112
2022-11-13T08:36:46.230Z,96109
2022-11-13T08:37:56.047Z,96117
2022-11-13T08:39:03.709Z,96114
2022-11-13T08:40:13.427Z,96113
2022-11-13T08:41:22.324Z,96112
2022-11-13T08:42:32.340Z,96115
2022-11-13T08:43:42.204Z,96116
2022-11-13T08:44:51.305Z,96110
2022-11-13T08:46:00.107Z,96106
2022-11-13T08:47:09.785Z,96111
2022-11-13T08:48:18.599Z,96113
2022-11-13T08:49:27.483Z,96118
2022-11-13T08:50:37.143Z,96107
2022-11-13T08:51:46.816Z,96107
2022-11-13T08:52:56.772Z,96108
2022-11-13T08:54:05.418Z,96103
2022-11-13T08:55:14.088Z,96100
2022-11-13T08:56:23.753Z,96096
2022-11-13T08:57:31.531Z,96096
2022-11-13T08:58:41.445Z,96103
2022-11-13T08:59:51.016Z,96099
2022-11-13T09:01:00.008Z,96107
2022-11-13T09:02:10.040Z,96104
2022-11-13T09:03:19.577Z,96102
2022-11-13T09:04:28.199Z,96096
2022-11-13T09:05:37.875Z,96097
2022-11-13T09:06:46.636Z,96092
2022-11-13T09:07:56.217Z,96093
2022-11-13T09:09:04.894Z,96093
2022-11-13T09:10:13.565Z,96099
2022-11-13T09:11:23.548Z,96099
2022-11-13T09:12:31.235Z,96099
2022-11-13T09:13:44.447Z,96102
2022-11-13T09:14:51.559Z,96102
2022-11-13T09:16:01.214Z,96105
2022-11-13T09:17:09.883Z,96103
2022-11-13T09:18:18.562Z,96101
2022-11-13T09:19:27.246Z,96101
2022-11-13T09:20:36.908Z,96097
2022-11-13T09:21:45.569Z,96098
2022-11-13T09:22:54.219Z,96097
2022-11-13T09:24:04.004Z,96094
2022-11-13T09:25:13.673Z,96098
2022-11-13T09:26:22.340Z,96093
2022-11-13T09:27:32.066Z,96100
2022-11-13T09:28:39.707Z,96097
2022-11-13T09:29:54.325Z,96095
2022-11-13T09:30:59.391Z,96093
2022-11-13T09:32:07.965Z,96087
2022-11-13T09:33:17.617Z,96080
2022-11-13T09:34:25.297Z,96082
2022-11-13T09:35:33.981Z,96084
2022-11-13T09:36:42.664Z,96079
2022-11-13T09:37:52.335Z,96086
2022-11-13T09:39:02.083Z,96085
2022-11-13T09:40:10.757Z,96087
2022-11-13T09:41:20.441Z,96083
2022-11-13T09:42:30.155Z,96087
2022-11-13T09:43:38.833Z,96088
2022-11-13T09:44:47.493Z,96079
2022-11-13T09:45:57.187Z,96073
2022-11-13T09:47:06.136Z,96072
2022-11-13T09:48:15.677Z,96077
2022-11-13T09:49:24.388Z,96074
2022-11-13T09:50:34.067Z,96068
2022-11-13T09:51:42.733Z,96065
2022-11-13T09:52:51.406Z,96061
2022-11-13T09:54:01.078Z,96056
2022-11-13T09:55:09.739Z,96054
2022-11-13T09:56:19.397Z,96051
2022-11-13T09:57:28.063Z,96054
2022-11-13T09:58:36.746Z,96046
2022-11-13T09:59:46.402Z,96053
2022-11-13T10:00:54.101Z,96055
2022-11-13T10:02:03.725Z,96060
2022-11-13T10:03:13.513Z,96062
2022-11-13T10:04:24.063Z,96064
2022-11-13T10:05:33.748Z,96059
2022-11-13T10:06:42.415Z,96056
2022-11-13T10:07:51.084Z,96059
2022-11-13T10:08:59.773Z,96059
2022-11-13T10:10:07.442Z,96049
2022-11-13T10:11:17.092Z,96051
2022-11-13T10:12:26.761Z,96054
2022-11-13T10:13:34.415Z,96049
2022-11-13T10:14:44.093Z,96044
2022-11-13T10:15:52.756Z,96044
2022-11-13T10:17:01.404Z,96041
2022-11-13T10:18:11.060Z,96040
2022-11-13T10:19:18.845Z,96039
2022-11-13T10:20:27.400Z,96038
2022-11-13T10:21:37.088Z,96032
2022-11-13T10:22:44.745Z,96028
2022-11-13T10:23:53.439Z,96027
2022-11-13T10:25:02.108Z,96020
2022-11-13T10:26:11.773Z,96021
2022-11-13T10:27:21.488Z,96025
2022-11-13T10:29:42.378Z,96019
2022-11-13T10:30:50.478Z,96019
2022-11-13T10:31:59.148Z,96018
2022-11-13T10:33:08.964Z,96026
2022-11-13T10:34:17.647Z,96024
2022-11-13T10:35:27.459Z,96015
2022-11-13T10:36:37.033Z,96011
2022-11-13T10:37:46.722Z,96010
2022-11-13T10:38:55.509Z,96012
2022-11-13T10:40:05.195Z,96015
2022-11-13T10:41:12.879Z,96013
2022-11-13T10:42:22.537Z,95995
2022-11-13T10:43:31.496Z,95996
2022-11-13T10:44:39.944Z,96001
2022-11-13T10:45:49.624Z,95993
2022-11-13T10:46:59.342Z,95993
2022-11-13T10:48:08.088Z,95988
2022-11-13T10:49:17.905Z,95983
2022-11-13T10:50:25.633Z,95986
2022-11-13T10:51:35.420Z,95978
2022-11-13T10:52:44.981Z,95983
2022-11-13T10:53:54.672Z,95980
2022-11-13T10:55:04.355Z,95982
2022-11-13T10:56:13.033Z,95977
2022-11-13T10:57:22.714Z,95975
2022-11-13T10:58:32.669Z,95976
2022-11-13T10:59:40.130Z,95974
2022-11-13T11:00:49.985Z,95973
2022-11-13T11:01:59.504Z,95966
2022-11-13T11:03:08.179Z,95964
2022-11-13T11:04:17.860Z,95960
2022-11-13T11:05:26.532Z,95955
2022-11-13T11:07:04.938Z,95955
2022-11-13T11:07:47.012Z,95951
2022-11-13T11:08:55.511Z,95949
2022-11-13T11:10:05.215Z,95954
2022-11-13T11:11:13.836Z,95954
2022-11-13T11:12:29.215Z,95949
2022-11-13T11:13:34.200Z,95949
2022-11-13T11:14:41.904Z,95944
2022-11-13T11:15:50.558Z,95944
2022-11-13T11:17:00.241Z,95938
2022-11-13T11:18:09.921Z,95936
2022-11-13T11:19:18.604Z,95942
2022-11-13T11:20:27.258Z,95938
2022-11-13T11:21:35.944Z,95941
2022-11-13T11:22:45.616Z,95934
2022-11-13T11:23:56.113Z,95939
2022-11-13T11:25:01.953Z,95936
2022-11-13T11:26:11.681Z,95933
2022-11-13T11:27:20.353Z,95931
2022-11-13T11:28:30.362Z,95924
2022-11-13T11:29:39.713Z,95927
2022-11-13T11:30:48.404Z,95928
2022-11-13T11:31:57.104Z,95936
2022-11-13T11:33:04.983Z,95936
2022-11-13T11:34:13.898Z,95927
2022-11-13T11:35:23.582Z,95923
2022-11-13T11:36:31.568Z,95918
2022-11-13T11:37:40.245Z,95915
2022-11-13T11:38:49.195Z,95912
2022-11-13T11:39:56.979Z,95910
2022-11-13T11:41:06.559Z,95914
2022-11-13T11:42:16.234Z,95910
2022-11-13T11:43:24.943Z,95905
2022-11-13T11:44:34.675Z,95903
2022-11-13T11:45:43.337Z,95904
2022-11-13T11:46:51.001Z,95903
2022-11-13T11:47:59.686Z,95901
2022-11-13T11:49:08.370Z,95896
2022-11-13T11:50:17.043Z,95890
2022-11-13T11:51:26.698Z,95892
2022-11-13T11:52:36.358Z,95892
2022-11-13T11:53:44.040Z,95891
2022-11-13T11:54:52.777Z,95880
2022-11-13T11:56:02.572Z,95879
2022-11-13T11:57:12.126Z,95888
2022-11-13T11:58:21.815Z,95883
2022-11-13T11:59:31.531Z,95880
2022-11-13T12:00:40.193Z,95883
2022-11-13T12:01:49.871Z,95881
2022-11-13T12:02:59.116Z,95881
2022-11-13T12:04:08.747Z,95887
2022-11-13T12:05:20.207Z,95882
2022-11-13T12:06:28.429Z,95879
2022-11-13T12:07:38.223Z,95879
2022-11-13T12:08:46.894Z,95882
2022-11-13T12:09:55.597Z,95884
2022-11-13T12:11:05.533Z,95876
2022-11-13T12:12:15.160Z,95876
2022-11-13T12:13:23.860Z,95878
2022-11-13T12:14:32.530Z,95873
2022-11-13T12:15:42.416Z,95880
2022-11-13T12:16:52.189Z,95877
2022-11-13T12:18:00.864Z,95873
2022-11-13T12:19:09.527Z,95873
2022-11-13T12:20:19.249Z,95877
2022-11-13T12:21:27.892Z,95877
2022-11-13T12:22:36.568Z,95878
2022-11-13T12:23:46.396Z,95875
2022-11-13T12:24:55.067Z,95879
2022-11-13T12:26:03.731Z,95872
2022-11-13T12:27:12.749Z,95867
2022-11-13T12:28:22.298Z,95865
2022-11-13T12:29:31.959Z,95858
2022-11-13T12:30:41.646Z,95851
2022-11-13T12:31:51.317Z,95841
2022-11-13T12:33:00.988Z,95835
2022-11-13T12:34:09.674Z,95836
2022-11-13T12:35:19.361Z,95832
2022-11-13T12:36:28.023Z,95831
2022-11-13T12:37:37.695Z,95831
2022-11-13T12:38:47.376Z,95835
2022-11-13T12:39:56.234Z,95833
2022-11-13T12:41:04.906Z,95831
2022-11-13T12:42:14.590Z,95829
2022-11-13T12:43:22.390Z,95826
2022-11-13T12:44:31.928Z,95822
2022-11-13T12:45:41.664Z,95819
2022-11-13T12:46:51.326Z,95822
2022-11-13T12:48:00.994Z,95829
2022-11-13T12:49:10.664Z,95830
2022-11-13T12:50:19.314Z,95832
2022-11-13T12:51:29.989Z,95834
2022-11-13T12:52:37.652Z,95840
2022-11-13T12:53:46.323Z,95846
2022-11-13T12:54:55.987Z,95845
2022-11-13T12:56:04.680Z,95843
2022-11-13T12:57:14.533Z,95845
2022-11-13T12:58:23.201Z,95842
2022-11-13T12:59:33.001Z,95837
2022-11-13T13:00:42.571Z,95830
2022-11-13T13:01:50.256Z,95825
2022-11-13T13:02:59.908Z,95825
2022-11-13T13:04:09.642Z,95819
2022-11-13T13:05:19.302Z,95820
2022-11-13T13:06:28.982Z,95816
2022-11-13T13:07:36.645Z,95813
2022-11-13T13:08:46.375Z,95807
2022-11-13T13:09:56.044Z,95808
2022-11-13T13:11:03.724Z,95805
2022-11-13T13:12:13.391Z,95797
2022-11-13T13:13:24.562Z,95796
2022-11-13T13:14:31.726Z,95783
2022-11-13T13:15:41.526Z,95782
2022-11-13T13:16:51.126Z,95785
2022-11-13T13:18:00.782Z,95783
2022-11-13T13:19:10.449Z,95782
2022-11-13T13:20:19.217Z,95781
2022-11-13T13:21:27.889Z,95784
2022-11-13T13:22:36.562Z,95781
2022-11-13T13:23:45.329Z,95790
2022-11-13T13:24:53.993Z,95790
2022-11-13T13:26:02.695Z,95791
2022-11-13T13:27:11.352Z,95795
2022-11-13T13:28:21.038Z,95794
2022-11-13T13:29:28.725Z,95795
2022-11-13T13:30:37.386Z,95797
2022-11-13T13:31:46.210Z,95788
2022-11-13T13:32:55.793Z,95784
2022-11-13T13:34:06.522Z,95781
2022-11-13T13:35:16.246Z,95778
2022-11-13T13:36:23.908Z,95775
2022-11-13T13:37:33.608Z,95771
2022-11-13T13:38:41.282Z,95771
2022-11-13T13:39:51.953Z,95770
2022-11-13T13:41:01.631Z,95770
2022-11-13T13:42:11.321Z,95766
2022-11-13T13:43:21.128Z,95759
2022-11-13T13:44:29.800Z,95756
2022-11-13T13:45:39.504Z,95752
2022-11-13T13:46:48.299Z,95750
2022-11-13T13:47:56.855Z,95749
2022-11-13T13:49:06.632Z,95749
2022-11-13T13:50:16.304Z,95749
2022-11-13T13:51:24.993Z,95752
2022-11-13T13:52:34.681Z,95744
2022-11-13T13:53:43.376Z,95745
2022-11-13T13:54:53.085Z,95735
2022-11-13T13:56:02.781Z,95735
2022-11-13T13:57:11.477Z,95730
2022-11-13T13:58:21.182Z,95733
2022-11-13T13:59:30.890Z,95737
2022-11-13T14:00:53.456Z,95733
2022-11-13T14:01:50.450Z,95730
2022-11-13T14:02:59.963Z,95731
2022-11-13T14:04:09.644Z,95733
2022-11-13T14:05:19.384Z,95735
2022-11-13T14:06:28.093Z,95739
2022-11-13T14:07:36.793Z,95740
2022-11-13T14:08:46.468Z,95738
2022-11-13T14:09:55.227Z,95739
2022-11-13T14:11:03.978Z,95740
2022-11-13T14:12:12.675Z,95744
2022-11-13T14:13:21.369Z,95744
2022-11-13T14:14:31.125Z,95742
2022-11-13T14:15:40.817Z,95737
2022-11-13T14:16:50.590Z,95730
2022-11-13T14:18:00.350Z,95727
2022-11-13T14:19:08.927Z,95733
2022-11-13T14:20:18.640Z,95730
2022-11-13T14:21:27.346Z,95727
2022-11-13T14:22:36.079Z,95724
2022-11-13T14:23:44.834Z,95722
2022-11-13T14:24:52.533Z,95719
2022-11-13T14:26:01.195Z,95726
2022-11-13T14:27:10.892Z,95719
2022-11-13T14:28:19.611Z,95722
2022-11-13T14:29:28.338Z,95721
2022-11-13T14:30:37.083Z,95718
2022-11-13T14:31:45.784Z,95715
2022-11-13T14:32:55.463Z,95718
2022-11-13T14:34:03.321Z,95714
2022-11-13T14:35:12.940Z,95708
2022-11-13T14:36:22.609Z,95709
2022-11-13T14:37:31.286Z,95703
2022-11-13T14:38:39.995Z,95703
2022-11-13T14:39:49.715Z,95703
2022-11-13T14:40:59.437Z,95696
2022-11-13T14:42:09.163Z,95700
2022-11-13T14:43:17.820Z,95706
2022-11-13T14:44:30.882Z,95705
2022-11-13T14:45:37.134Z,95714
2022-11-13T14:46:44.839Z,95715
2022-11-13T14:47:53.502Z,95708
2022-11-13T14:49:03.178Z,95709
2022-11-13T14:50:12.969Z,95709